Addison Township, Michigan
Current Conditions -  °F | °C
As of 2:34 AM on Saturday 25 Oct 2014 (Local Time) from KD95 Reporting Station
Haze Haze  
Wind Chill:   Ceiling: Unl
Heat Index:   Visibility: 5mi
Dew Point:   Wind: 5mph
Humidity: 94%   Direction: 230°SW
Pressure: 29.9"   Gusts: NA
Location:  42.8434°N, 83.1398°W
Report Text: KD95 250634Z AUTO 23004KT 5SM BR CLR 07/06 A2990 RMK AO2 T00680059
Loading
Personal Weather Stations






























Interactive Weather Map
Tropical Storm Tracking
New forecast layout! Learn more

10-Day Weather Forecast

Advertisements
Track Severe Weather on mobile